Terminal Aerodrome Forecast
Issued by NWS Paducah, KY

Home | Current Version | Previous Version | Text Only | Print | Product List | Glossary On
Versions: 1 2 3 4 5 6 7 8 9 10 11 12 13 14 15 16 17 18
903
FTUS43 KPAH 060707 AAB
TAFPAH
TAF AMD
KPAH 060707Z 0607/0706 04005KT 2SM RA BR OVC004
     FM061500 33009KT 4SM -DZ BR OVC012
     FM061700 32012G20KT P6SM BKN025
     FM062200 33010KT P6SM SCT030
     FM070100 35005KT P6SM SCT250=

USA.gov is the U.S. government's official web portal to all federal, state and local government web resources and services.